Aviation Digital Data Service (ADDS)

Output produced by METARs form (2111 UTC 17 June 2019)
found at http://www.aviationweather.gov/metar/data/
 
Forecast for: HECA (CAIRO INTL AIRPO, EG)
Text: TAF HECA 171700Z 1718/1824 35009KT 9999 FEW025
Forecast period: 1800 UTC 17 June 2019 to 0000 UTC 19 June 2019
Forecast type: FROM: standard forecast or significant change
Winds: from the N (350 degrees) at 10 MPH (9 knots; 4.6 m/s)
Visibility: 6 or more miles 10+ km)
Ceiling: at least 12,000 feet AGL
Clouds: few clouds at 2500 feet AGL
Weather: no significant weather forecast for this period
Text: TEMPO 1802/1806 VRB03KT 4000BR NSC
Forecast period: 0200 to 0600 UTC 18 June 2019
Forecast type: TEMPORARY: The following changes expected for less than half the time period
Winds: variable direction winds at 3 MPH (3 knots; 1.5 m/s)
Visibility: missing
Ceiling: unknown
Clouds: missing
Weather: BR  (mist)